Time;durP1;ratioP1;P1;durP2;ratioP2;P2;SDS_P1;SDS_P2;PMS_P1;PMS_P2;Temp;Humidity;BMP_temperature;BMP_pressure;BME280_temperature;BME280_humidity;BME280_pressure;Samples;Min_cycle;Max_cycle;Signal;HPM_P1;HPM_P2
2023/12/10 00:04:40;;;;;;;10.40;9.40;;;;;;;;;;10314589;28;20496;-75
2023/12/10 00:09:36;;;;;;;10.80;9.60;;;;;;;;;;10300377;28;20048;-76
2023/12/10 00:14:33;;;;;;;10.70;9.65;;;;;;;;;;10307565;28;20083;-75
2023/12/10 00:19:29;;;;;;;10.70;9.07;;;;;;;;;;10282360;28;20057;-75
2023/12/10 00:24:26;;;;;;;10.23;9.25;;;;;;;;;;10296014;28;20051;-75
2023/12/10 00:29:22;;;;;;;10.50;9.52;;;;;;;;;;10297672;28;20041;-74
2023/12/10 00:34:18;;;;;;;11.50;10.40;;;;;;;;;;10305454;28;20053;-75
2023/12/10 00:39:15;;;;;;;11.30;10.20;;;;;;;;;;10302345;28;20064;-75
2023/12/10 00:44:11;;;;;;;11.02;10.02;;;;;;;;;;10299903;28;20067;-75
2023/12/10 00:49:09;;;;;;;11.15;10.05;;;;;;;;;;10298806;28;20063;-75
2023/12/10 00:54:06;;;;;;;10.88;9.77;;;;;;;;;;10312756;28;20054;-76
2023/12/10 00:59:02;;;;;;;11.25;10.15;;;;;;;;;;10305207;28;20042;-76
2023/12/10 01:03:59;;;;;;;10.35;9.32;;;;;;;;;;10298441;28;20068;-76
2023/12/10 01:08:55;;;;;;;10.50;9.20;;;;;;;;;;10305205;28;20044;-76
2023/12/10 01:13:52;;;;;;;11.48;9.05;;;;;;;;;;10306558;28;20049;-76
2023/12/10 01:18:48;;;;;;;10.35;9.25;;;;;;;;;;10294691;28;20036;-75
2023/12/10 01:23:45;;;;;;;9.68;8.77;;;;;;;;;;10296472;28;20455;-75
2023/12/10 01:28:41;;;;;;;10.85;9.85;;;;;;;;;;10303230;28;20466;-75
2023/12/10 01:33:38;;;;;;;9.73;8.82;;;;;;;;;;10287964;28;20531;-76
2023/12/10 01:38:35;;;;;;;9.73;8.75;;;;;;;;;;10310228;28;20051;-75
2023/12/10 01:43:31;;;;;;;9.90;8.90;;;;;;;;;;10310413;28;20053;-76
2023/12/10 01:48:28;;;;;;;9.40;8.48;;;;;;;;;;10307874;28;20099;-76
2023/12/10 01:53:25;;;;;;;9.80;8.90;;;;;;;;;;10296812;28;20067;-76
2023/12/10 01:58:23;;;;;;;9.70;8.65;;;;;;;;;;10297730;28;20049;-76
2023/12/10 02:03:21;;;;;;;10.65;9.45;;;;;;;;;;10308208;28;20128;-76
2023/12/10 02:08:17;;;;;;;9.48;8.68;;;;;;;;;;10289041;28;20094;-76
2023/12/10 02:13:14;;;;;;;9.23;8.32;;;;;;;;;;10305070;28;20406;-76
2023/12/10 02:18:10;;;;;;;9.73;8.82;;;;;;;;;;10300728;28;20067;-76
2023/12/10 02:23:09;;;;;;;10.18;9.18;;;;;;;;;;10304586;28;20045;-76
2023/12/10 02:28:07;;;;;;;9.15;8.25;;;;;;;;;;10306033;28;20427;-76
2023/12/10 02:33:03;;;;;;;11.75;9.05;;;;;;;;;;10272237;28;20075;-76
2023/12/10 02:38:03;;;;;;;11.30;8.55;;;;;;;;;;10298527;28;20052;-76
2023/12/10 02:43:00;;;;;;;9.50;8.60;;;;;;;;;;10294344;28;21253;-77
2023/12/10 02:47:57;;;;;;;11.05;8.23;;;;;;;;;;10286782;28;20127;-77
2023/12/10 02:52:54;;;;;;;12.52;9.10;;;;;;;;;;10286418;28;20064;-77
2023/12/10 02:57:50;;;;;;;11.60;9.05;;;;;;;;;;10293504;28;20067;-77
2023/12/10 03:02:47;;;;;;;14.38;9.00;;;;;;;;;;10295575;28;20120;-76
2023/12/10 03:07:43;;;;;;;11.48;9.27;;;;;;;;;;10317139;28;20482;-76
2023/12/10 03:12:39;;;;;;;11.88;9.63;;;;;;;;;;10299968;28;20049;-76
2023/12/10 03:17:36;;;;;;;10.52;9.00;;;;;;;;;;10307525;28;20110;-76
2023/12/10 03:22:32;;;;;;;12.68;9.73;;;;;;;;;;10302598;28;20516;-75
2023/12/10 03:27:29;;;;;;;11.18;9.70;;;;;;;;;;10311212;28;20490;-75
2023/12/10 03:32:25;;;;;;;11.98;8.95;;;;;;;;;;10304185;28;20061;-75
2023/12/10 03:37:22;;;;;;;16.65;10.00;;;;;;;;;;10287051;28;20044;-75
2023/12/10 03:42:18;;;;;;;14.55;8.63;;;;;;;;;;10293800;28;20052;-75
2023/12/10 03:47:15;;;;;;;11.10;9.05;;;;;;;;;;10306703;28;20083;-76
2023/12/10 03:52:11;;;;;;;12.55;9.48;;;;;;;;;;10302982;28;20517;-76
2023/12/10 03:57:07;;;;;;;11.73;8.70;;;;;;;;;;10311540;28;20458;-75
2023/12/10 04:02:04;;;;;;;13.80;8.95;;;;;;;;;;10305012;28;20057;-75
2023/12/10 04:07:00;;;;;;;11.70;9.38;;;;;;;;;;10288179;28;20045;-75
2023/12/10 04:11:58;;;;;;;11.43;9.15;;;;;;;;;;10310521;28;20045;-75
2023/12/10 04:16:55;;;;;;;21.13;9.50;;;;;;;;;;10308542;28;20049;-75
2023/12/10 04:21:52;;;;;;;17.00;9.23;;;;;;;;;;10306477;28;20508;-75
2023/12/10 04:26:48;;;;;;;9.80;8.30;;;;;;;;;;10324216;28;20045;-75
2023/12/10 04:31:44;;;;;;;22.35;8.82;;;;;;;;;;10303588;28;20089;-75
2023/12/10 04:36:41;;;;;;;29.70;9.52;;;;;;;;;;10289609;28;20049;-75
2023/12/10 04:41:37;;;;;;;27.13;7.45;;;;;;;;;;10304372;28;20068;-75
2023/12/10 04:46:33;;;;;;;30.45;7.43;;;;;;;;;;10295563;28;20041;-74
2023/12/10 04:51:30;;;;;;;21.63;6.78;;;;;;;;;;10309753;28;20040;-75
2023/12/10 04:56:27;;;;;;;24.92;6.63;;;;;;;;;;10311461;28;20606;-75
2023/12/10 05:01:24;;;;;;;29.73;6.57;;;;;;;;;;10315637;28;20045;-74
2023/12/10 05:06:20;;;;;;;29.17;6.75;;;;;;;;;;10300396;28;20416;-74
2023/12/10 05:11:16;;;;;;;24.08;7.78;;;;;;;;;;10307495;28;20068;-76
2023/12/10 05:16:13;;;;;;;22.70;6.88;;;;;;;;;;10292945;28;20488;-76
2023/12/10 05:21:09;;;;;;;24.58;7.15;;;;;;;;;;10309076;28;20095;-76
2023/12/10 05:26:05;;;;;;;25.98;8.32;;;;;;;;;;10314558;28;20052;-76
2023/12/10 05:31:02;;;;;;;19.20;6.90;;;;;;;;;;10307393;28;20068;-76
2023/12/10 05:35:59;;;;;;;28.80;7.18;;;;;;;;;;10312827;28;20044;-76
2023/12/10 05:40:56;;;;;;;22.25;7.55;;;;;;;;;;10312326;28;20088;-76
2023/12/10 05:45:52;;;;;;;22.85;7.47;;;;;;;;;;10310028;28;20244;-76
2023/12/10 05:50:49;;;;;;;16.13;7.07;;;;;;;;;;10301500;28;20447;-76
2023/12/10 05:55:45;;;;;;;28.45;7.82;;;;;;;;;;10297161;28;20056;-76
2023/12/10 06:00:41;;;;;;;28.75;7.55;;;;;;;;;;10298036;28;20036;-76
2023/12/10 06:05:38;;;;;;;28.13;7.35;;;;;;;;;;10312177;28;20155;-76
2023/12/10 06:10:35;;;;;;;33.45;8.50;;;;;;;;;;10309504;28;20135;-76
2023/12/10 06:15:31;;;;;;;33.30;8.18;;;;;;;;;;10298182;28;20409;-76
2023/12/10 06:20:28;;;;;;;28.30;7.22;;;;;;;;;;10289734;28;20060;-76
2023/12/10 06:25:24;;;;;;;27.15;8.27;;;;;;;;;;10304135;28;20136;-75
2023/12/10 06:30:20;;;;;;;18.33;7.57;;;;;;;;;;10306602;28;20048;-75
2023/12/10 06:35:17;;;;;;;24.98;8.38;;;;;;;;;;10294693;28;20057;-75
2023/12/10 06:40:13;;;;;;;23.65;7.65;;;;;;;;;;10308551;28;20178;-76
2023/12/10 06:45:11;;;;;;;24.40;7.78;;;;;;;;;;10282900;28;20045;-75
2023/12/10 06:50:07;;;;;;;19.13;6.65;;;;;;;;;;10303403;28;20045;-75
2023/12/10 06:55:04;;;;;;;20.13;7.30;;;;;;;;;;10309049;28;20073;-75
2023/12/10 07:00:00;;;;;;;21.67;7.85;;;;;;;;;;10297718;28;20049;-75
2023/12/10 07:04:56;;;;;;;27.25;8.20;;;;;;;;;;10292961;28;20048;-75
2023/12/10 07:09:53;;;;;;;20.10;7.30;;;;;;;;;;10298678;28;20656;-75
2023/12/10 07:14:50;;;;;;;24.55;7.40;;;;;;;;;;10297956;28;20098;-75
2023/12/10 07:19:47;;;;;;;20.13;7.32;;;;;;;;;;10275621;28;20090;-75
2023/12/10 07:24:43;;;;;;;17.25;7.05;;;;;;;;;;10307820;28;20068;-75
2023/12/10 07:29:40;;;;;;;21.42;7.20;;;;;;;;;;10294851;28;20067;-74
2023/12/10 07:34:36;;;;;;;19.55;6.35;;;;;;;;;;10302661;28;20101;-74
2023/12/10 07:39:33;;;;;;;16.42;6.45;;;;;;;;;;10291114;28;20044;-75
2023/12/10 07:44:29;;;;;;;19.58;6.30;;;;;;;;;;10296243;28;20601;-75
2023/12/10 07:49:26;;;;;;;19.38;6.53;;;;;;;;;;10305878;28;20049;-75
2023/12/10 07:54:22;;;;;;;18.17;6.75;;;;;;;;;;10305088;28;20055;-74
2023/12/10 07:59:19;;;;;;;18.30;5.90;;;;;;;;;;10302129;28;20048;-74
2023/12/10 08:04:19;;;;;;;16.15;6.30;;;;;;;;;;10298538;28;20500;-74
2023/12/10 08:09:16;;;;;;;20.02;7.22;;;;;;;;;;10299528;28;20141;-75
2023/12/10 08:14:12;;;;;;;11.68;6.28;;;;;;;;;;10287069;28;20144;-75
2023/12/10 08:19:08;;;;;;;13.55;6.65;;;;;;;;;;10298480;28;20423;-74
2023/12/10 08:24:05;;;;;;;16.55;6.00;;;;;;;;;;10311459;28;20041;-74
2023/12/10 08:29:02;;;;;;;18.85;6.68;;;;;;;;;;10277945;28;20075;-75
2023/12/10 08:33:58;;;;;;;16.05;6.43;;;;;;;;;;10298964;28;20741;-75
2023/12/10 08:38:55;;;;;;;12.20;6.57;;;;;;;;;;10305161;28;20462;-75
2023/12/10 08:43:51;;;;;;;11.88;6.13;;;;;;;;;;10300147;28;20640;-74
2023/12/10 08:48:48;;;;;;;13.10;6.90;;;;;;;;;;10295945;28;20099;-75
2023/12/10 08:53:44;;;;;;;9.55;6.25;;;;;;;;;;10295284;28;20107;-75
2023/12/10 08:58:40;;;;;;;12.70;6.32;;;;;;;;;;10295881;28;20086;-74
2023/12/10 09:03:38;;;;;;;17.20;7.18;;;;;;;;;;10303590;28;20037;-75
2023/12/10 09:08:34;;;;;;;13.43;7.13;;;;;;;;;;10301365;28;20071;-75
2023/12/10 09:13:35;;;;;;;14.90;6.07;;;;;;;;;;10300415;28;20504;-75
2023/12/10 09:18:31;;;;;;;11.15;5.90;;;;;;;;;;10289037;28;20521;-75
2023/12/10 09:23:28;;;;;;;10.20;5.88;;;;;;;;;;10311572;28;20086;-75
2023/12/10 09:28:24;;;;;;;8.00;5.38;;;;;;;;;;10307210;28;20507;-74
2023/12/10 09:33:20;;;;;;;11.38;5.88;;;;;;;;;;10314309;28;20420;-75
2023/12/10 09:38:17;;;;;;;11.98;6.55;;;;;;;;;;10312683;28;20044;-75
2023/12/10 09:43:13;;;;;;;12.88;6.20;;;;;;;;;;10289784;28;20102;-75
2023/12/10 09:48:10;;;;;;;12.60;6.50;;;;;;;;;;10308067;28;20040;-75
2023/12/10 09:53:07;;;;;;;8.73;6.63;;;;;;;;;;10314908;28;20052;-75
2023/12/10 09:58:03;;;;;;;7.45;6.70;;;;;;;;;;10308965;28;20063;-75
2023/12/10 10:03:01;;;;;;;7.68;6.53;;;;;;;;;;10298602;28;20049;-75
2023/12/10 10:07:57;;;;;;;9.32;6.75;;;;;;;;;;10292954;28;20060;-75
2023/12/10 10:12:54;;;;;;;8.10;6.95;;;;;;;;;;10286036;28;20045;-76
2023/12/10 10:17:51;;;;;;;8.60;5.78;;;;;;;;;;10297771;28;20417;-76
2023/12/10 10:22:48;;;;;;;10.95;6.22;;;;;;;;;;10300669;28;20515;-75
2023/12/10 10:27:45;;;;;;;7.38;6.43;;;;;;;;;;10293481;28;20049;-76
2023/12/10 10:32:42;;;;;;;7.43;5.90;;;;;;;;;;10289667;28;20052;-76
2023/12/10 10:37:39;;;;;;;8.07;6.10;;;;;;;;;;10298317;28;20128;-76
2023/12/10 10:42:35;;;;;;;6.93;5.30;;;;;;;;;;10288920;28;20077;-75
2023/12/10 10:47:32;;;;;;;5.13;4.63;;;;;;;;;;10293384;28;20098;-75
2023/12/10 10:52:31;;;;;;;8.10;5.13;;;;;;;;;;10296168;28;20044;-75
2023/12/10 10:57:29;;;;;;;5.85;5.25;;;;;;;;;;10301523;28;20515;-75
2023/12/10 11:02:27;;;;;;;9.10;4.70;;;;;;;;;;10307486;28;20416;-75
2023/12/10 11:07:25;;;;;;;8.20;5.40;;;;;;;;;;10305372;28;20106;-75
2023/12/10 11:12:40;;;;;;;7.43;5.55;;;;;;;;;;10298756;28;20052;-76
2023/12/10 11:17:48;;;;;;;7.15;5.30;;;;;;;;;;10301356;28;20512;-75
2023/12/10 11:22:45;;;;;;;7.90;5.18;;;;;;;;;;10305854;28;20103;-75
2023/12/10 11:27:41;;;;;;;5.18;4.43;;;;;;;;;;10298570;28;20045;-75
2023/12/10 11:32:38;;;;;;;8.63;4.97;;;;;;;;;;10300833;28;20056;-75
2023/12/10 11:37:35;;;;;;;5.40;4.80;;;;;;;;;;10284485;28;20053;-75
2023/12/10 11:42:31;;;;;;;4.80;4.18;;;;;;;;;;10302071;28;20048;-75
2023/12/10 11:47:28;;;;;;;7.75;5.32;;;;;;;;;;10292219;28;20048;-75
2023/12/10 11:52:26;;;;;;;7.22;5.63;;;;;;;;;;10299835;28;20057;-75
2023/12/10 11:57:22;;;;;;;10.98;6.78;;;;;;;;;;10302301;28;20055;-75
2023/12/10 12:02:19;;;;;;;7.03;4.47;;;;;;;;;;10295393;28;20079;-75
2023/12/10 12:07:22;;;;;;;7.55;4.97;;;;;;;;;;10300594;28;20456;-75
2023/12/10 12:12:20;;;;;;;12.00;5.00;;;;;;;;;;10300785;28;20079;-75
2023/12/10 12:17:18;;;;;;;8.02;4.68;;;;;;;;;;10306334;28;20059;-74
2023/12/10 12:22:14;;;;;;;8.18;4.70;;;;;;;;;;10272312;28;20453;-74
2023/12/10 12:27:11;;;;;;;10.30;4.90;;;;;;;;;;10294219;28;20106;-74
2023/12/10 12:32:07;;;;;;;8.23;4.00;;;;;;;;;;10296756;28;20577;-75
2023/12/10 12:37:23;;;;;;;6.45;3.75;;;;;;;;;;10304948;28;20076;-74
2023/12/10 12:42:20;;;;;;;15.10;5.55;;;;;;;;;;10305597;28;20053;-74
2023/12/10 12:47:17;;;;;;;21.48;4.72;;;;;;;;;;10309094;28;20526;-74
2023/12/10 12:52:14;;;;;;;21.55;5.53;;;;;;;;;;10303991;28;20048;-74
2023/12/10 12:57:11;;;;;;;11.52;4.65;;;;;;;;;;10297481;28;20053;-74
2023/12/10 13:02:08;;;;;;;11.27;4.30;;;;;;;;;;10278204;28;20053;-75
2023/12/10 13:07:05;;;;;;;13.43;5.00;;;;;;;;;;10304581;28;20073;-75
2023/12/10 13:12:01;;;;;;;16.75;5.13;;;;;;;;;;10300397;28;20045;-75
2023/12/10 13:16:58;;;;;;;17.02;5.05;;;;;;;;;;10302781;28;20053;-75
2023/12/10 13:21:54;;;;;;;23.90;6.57;;;;;;;;;;10296991;28;20090;-75
2023/12/10 13:26:51;;;;;;;16.48;5.50;;;;;;;;;;10299695;28;20063;-74
2023/12/10 13:31:48;;;;;;;18.85;6.82;;;;;;;;;;10311651;28;20419;-74
2023/12/10 13:36:45;;;;;;;24.13;6.00;;;;;;;;;;10306714;28;20057;-75
2023/12/10 13:41:41;;;;;;;18.35;5.78;;;;;;;;;;10293132;28;20397;-74
2023/12/10 13:46:37;;;;;;;17.08;6.25;;;;;;;;;;10277370;28;20052;-75
2023/12/10 13:51:34;;;;;;;11.90;5.80;;;;;;;;;;10284639;28;20509;-74
2023/12/10 13:56:30;;;;;;;14.35;5.50;;;;;;;;;;10303408;28;20052;-75
2023/12/10 14:01:26;;;;;;;10.32;3.95;;;;;;;;;;10307399;28;20060;-74
2023/12/10 14:06:23;;;;;;;6.93;3.40;;;;;;;;;;10293603;28;20048;-74
2023/12/10 14:11:19;;;;;;;5.30;3.28;;;;;;;;;;10306157;28;20048;-74
2023/12/10 14:16:28;;;;;;;5.55;2.97;;;;;;;;;;10303506;28;20052;-75
2023/12/10 14:21:26;;;;;;;9.32;3.10;;;;;;;;;;10310408;28;20236;-74
2023/12/10 14:26:28;;;;;;;4.50;3.20;;;;;;;;;;10279369;28;20057;-74
2023/12/10 14:31:25;;;;;;;5.13;3.08;;;;;;;;;;10308693;28;20057;-74
2023/12/10 14:36:24;;;;;;;12.75;3.20;;;;;;;;;;10297864;28;20059;-73
2023/12/10 14:41:20;;;;;;;11.30;3.40;;;;;;;;;;10290838;28;20044;-73
2023/12/10 14:46:16;;;;;;;6.20;3.13;;;;;;;;;;10300405;28;20055;-73
2023/12/10 14:51:13;;;;;;;10.30;3.28;;;;;;;;;;10308608;28;20056;-73
2023/12/10 14:56:09;;;;;;;11.07;3.80;;;;;;;;;;10284751;28;20044;-73
2023/12/10 15:01:06;;;;;;;13.27;4.00;;;;;;;;;;10304492;28;20051;-73
2023/12/10 15:06:03;;;;;;;12.70;4.78;;;;;;;;;;10302014;28;20061;-73
2023/12/10 15:10:59;;;;;;;8.63;4.18;;;;;;;;;;10302590;28;20094;-74
2023/12/10 15:15:56;;;;;;;10.43;5.20;;;;;;;;;;10305838;28;20454;-74
2023/12/10 15:20:52;;;;;;;10.55;4.00;;;;;;;;;;10299885;28;20068;-74
2023/12/10 15:25:48;;;;;;;7.82;4.63;;;;;;;;;;10297942;28;20049;-74
2023/12/10 15:30:45;;;;;;;12.65;5.80;;;;;;;;;;10299526;28;20044;-74
2023/12/10 15:35:42;;;;;;;15.25;4.90;;;;;;;;;;10293876;28;20047;-74
2023/12/10 15:40:38;;;;;;;14.15;6.53;;;;;;;;;;10289053;28;20094;-74
2023/12/10 15:45:34;;;;;;;9.52;5.00;;;;;;;;;;10276203;28;20048;-74
2023/12/10 15:50:31;;;;;;;11.00;5.13;;;;;;;;;;10296227;28;20052;-74
2023/12/10 15:55:28;;;;;;;7.82;4.75;;;;;;;;;;10294658;28;20051;-74
2023/12/10 16:00:24;;;;;;;8.27;5.00;;;;;;;;;;10299961;28;20053;-74
2023/12/10 16:05:20;;;;;;;11.95;5.45;;;;;;;;;;10284739;28;20052;-75
2023/12/10 16:10:18;;;;;;;9.95;5.50;;;;;;;;;;10304500;28;20152;-74
2023/12/10 16:15:14;;;;;;;17.20;5.53;;;;;;;;;;10300099;28;20048;-74
2023/12/10 16:20:11;;;;;;;11.80;5.70;;;;;;;;;;10311314;28;20056;-74
2023/12/10 16:25:07;;;;;;;14.75;6.55;;;;;;;;;;10283804;28;20572;-74
2023/12/10 16:30:04;;;;;;;16.77;5.50;;;;;;;;;;10302880;28;20225;-74
2023/12/10 16:35:01;;;;;;;16.60;6.20;;;;;;;;;;10291771;28;20057;-74
2023/12/10 16:40:00;;;;;;;12.57;6.32;;;;;;;;;;10307453;28;20708;-74
2023/12/10 16:44:56;;;;;;;10.35;5.97;;;;;;;;;;10299289;28;20596;-74
2023/12/10 16:49:53;;;;;;;21.30;8.93;;;;;;;;;;10313228;28;20163;-74
2023/12/10 16:54:49;;;;;;;15.80;7.63;;;;;;;;;;10308181;28;20052;-74
2023/12/10 16:59:46;;;;;;;18.38;7.38;;;;;;;;;;10310632;28;20045;-74
2023/12/10 17:04:42;;;;;;;15.57;6.28;;;;;;;;;;10297544;28;20072;-74
2023/12/10 17:09:39;;;;;;;19.90;7.90;;;;;;;;;;10317599;28;20048;-75
2023/12/10 17:14:36;;;;;;;15.70;6.93;;;;;;;;;;10305060;28;20049;-74
2023/12/10 17:19:33;;;;;;;16.25;6.85;;;;;;;;;;10313952;28;20059;-74
2023/12/10 17:24:30;;;;;;;19.85;6.85;;;;;;;;;;10303127;28;20049;-74
2023/12/10 17:29:26;;;;;;;23.60;7.82;;;;;;;;;;10282639;28;20056;-74
2023/12/10 17:34:23;;;;;;;17.88;7.65;;;;;;;;;;10300164;28;20055;-74
2023/12/10 17:39:20;;;;;;;21.63;8.40;;;;;;;;;;10288032;28;20052;-75
2023/12/10 17:44:19;;;;;;;19.70;10.38;;;;;;;;;;10301502;28;20064;-74
2023/12/10 17:49:15;;;;;;;21.48;9.82;;;;;;;;;;10304285;28;20048;-74
2023/12/10 17:54:15;;;;;;;17.63;9.65;;;;;;;;;;10300922;28;20566;-74
2023/12/10 17:59:12;;;;;;;34.33;10.52;;;;;;;;;;10296494;28;20044;-74
2023/12/10 18:04:08;;;;;;;27.95;11.30;;;;;;;;;;10305463;28;20090;-75
2023/12/10 18:09:05;;;;;;;24.95;9.98;;;;;;;;;;10307625;28;20523;-74
2023/12/10 18:14:01;;;;;;;20.92;9.45;;;;;;;;;;10296249;28;20090;-75
2023/12/10 18:18:57;;;;;;;23.15;9.20;;;;;;;;;;10294203;28;20094;-74
2023/12/10 18:23:54;;;;;;;16.70;8.85;;;;;;;;;;10305126;28;20040;-74
2023/12/10 18:28:50;;;;;;;18.75;8.20;;;;;;;;;;10291398;28;20067;-74
2023/12/10 18:33:47;;;;;;;20.13;8.52;;;;;;;;;;10287304;28;20040;-74
2023/12/10 18:38:44;;;;;;;21.00;8.85;;;;;;;;;;10292242;28;20051;-74
2023/12/10 18:43:41;;;;;;;26.25;8.88;;;;;;;;;;10302782;28;20074;-74
2023/12/10 18:48:37;;;;;;;26.63;10.15;;;;;;;;;;10305565;28;20151;-74
2023/12/10 18:53:33;;;;;;;23.85;8.50;;;;;;;;;;10290900;28;20055;-74
2023/12/10 18:58:30;;;;;;;23.38;8.23;;;;;;;;;;10292157;28;20045;-74
2023/12/10 19:03:28;;;;;;;24.20;9.43;;;;;;;;;;10291228;28;20040;-74
2023/12/10 19:08:25;;;;;;;15.13;8.63;;;;;;;;;;10299341;28;20540;-74
2023/12/10 19:13:21;;;;;;;21.40;8.32;;;;;;;;;;10300890;28;20049;-74
2023/12/10 19:18:18;;;;;;;22.35;8.02;;;;;;;;;;10295361;28;20041;-74
2023/12/10 19:23:14;;;;;;;22.35;8.43;;;;;;;;;;10302952;28;20083;-74
2023/12/10 19:28:11;;;;;;;24.92;8.95;;;;;;;;;;10301343;28;20053;-74
2023/12/10 19:33:07;;;;;;;26.67;8.73;;;;;;;;;;10304882;28;20052;-74
2023/12/10 19:38:04;;;;;;;18.50;7.90;;;;;;;;;;10305461;28;20053;-73
2023/12/10 19:43:01;;;;;;;23.10;8.93;;;;;;;;;;10296403;28;20049;-74
2023/12/10 19:47:58;;;;;;;24.48;9.68;;;;;;;;;;10302368;28;20059;-73
2023/12/10 19:52:54;;;;;;;23.58;8.10;;;;;;;;;;10300763;28;20049;-73
2023/12/10 19:57:50;;;;;;;22.10;9.10;;;;;;;;;;10309890;28;20067;-74
2023/12/10 20:02:48;;;;;;;26.50;9.00;;;;;;;;;;10308510;28;20488;-74
2023/12/10 20:07:45;;;;;;;20.48;10.07;;;;;;;;;;10314082;28;20033;-74
2023/12/10 20:12:41;;;;;;;21.77;9.45;;;;;;;;;;10306260;28;20044;-74
2023/12/10 20:17:39;;;;;;;21.20;7.93;;;;;;;;;;10299171;28;20431;-74
2023/12/10 20:22:36;;;;;;;22.75;8.15;;;;;;;;;;10277206;28;20048;-74
2023/12/10 20:27:32;;;;;;;21.98;9.55;;;;;;;;;;10305533;28;20424;-74
2023/12/10 20:32:29;;;;;;;21.02;8.15;;;;;;;;;;10298061;28;20143;-74
2023/12/10 20:37:25;;;;;;;27.75;10.25;;;;;;;;;;10300208;28;20057;-74
2023/12/10 20:42:22;;;;;;;31.45;9.18;;;;;;;;;;10302089;28;20098;-73
2023/12/10 20:47:18;;;;;;;25.02;9.05;;;;;;;;;;10298770;28;20117;-73
2023/12/10 20:52:14;;;;;;;25.92;9.23;;;;;;;;;;10299297;28;20048;-74
2023/12/10 20:57:11;;;;;;;22.88;9.23;;;;;;;;;;10280672;28;20079;-73
2023/12/10 21:02:07;;;;;;;14.38;7.78;;;;;;;;;;10310924;28;20044;-74
2023/12/10 21:07:03;;;;;;;19.98;7.97;;;;;;;;;;10291414;28;20048;-73
2023/12/10 21:12:01;;;;;;;31.92;9.40;;;;;;;;;;10300110;28;20401;-73
2023/12/10 21:17:00;;;;;;;25.25;8.43;;;;;;;;;;10304148;28;20071;-73
2023/12/10 21:21:56;;;;;;;16.08;8.38;;;;;;;;;;10309690;28;20452;-73
2023/12/10 21:26:53;;;;;;;26.92;8.90;;;;;;;;;;10304162;28;20072;-73
2023/12/10 21:31:49;;;;;;;25.63;9.32;;;;;;;;;;10300558;28;20528;-73
2023/12/10 21:36:45;;;;;;;19.85;8.82;;;;;;;;;;10289070;28;20110;-73
2023/12/10 21:41:42;;;;;;;23.52;8.25;;;;;;;;;;10307316;28;20053;-73
2023/12/10 21:46:39;;;;;;;25.58;11.23;;;;;;;;;;10299653;28;20052;-73
2023/12/10 21:51:35;;;;;;;19.27;8.55;;;;;;;;;;10298517;28;20124;-73
2023/12/10 21:56:32;;;;;;;27.23;9.00;;;;;;;;;;10297475;28;20057;-73
2023/12/10 22:01:31;;;;;;;23.83;8.73;;;;;;;;;;10286023;28;20053;-73
2023/12/10 22:06:28;;;;;;;18.23;7.45;;;;;;;;;;10312543;28;20563;-73
2023/12/10 22:11:24;;;;;;;18.35;8.18;;;;;;;;;;10306737;28;20056;-73
2023/12/10 22:16:21;;;;;;;20.65;7.78;;;;;;;;;;10300178;28;20094;-73
2023/12/10 22:21:17;;;;;;;22.40;8.13;;;;;;;;;;10294636;28;20525;-73
2023/12/10 22:26:14;;;;;;;25.30;8.02;;;;;;;;;;10287261;28;20079;-73
2023/12/10 22:31:10;;;;;;;23.80;8.10;;;;;;;;;;10293925;28;20057;-73
2023/12/10 22:36:06;;;;;;;19.98;8.85;;;;;;;;;;10294577;28;20048;-73
2023/12/10 22:41:04;;;;;;;18.45;8.63;;;;;;;;;;10294292;28;20543;-73
2023/12/10 22:46:00;;;;;;;20.05;8.55;;;;;;;;;;10293863;28;20040;-73
2023/12/10 22:50:56;;;;;;;21.08;8.52;;;;;;;;;;10305674;28;20040;-74
2023/12/10 22:55:53;;;;;;;15.35;8.25;;;;;;;;;;10305347;28;20052;-73
2023/12/10 23:00:49;;;;;;;23.05;9.85;;;;;;;;;;10299831;28;20040;-73
2023/12/10 23:05:46;;;;;;;18.05;7.78;;;;;;;;;;10298501;28;20072;-73
2023/12/10 23:10:42;;;;;;;14.73;7.35;;;;;;;;;;10303450;28;20127;-73
2023/12/10 23:15:39;;;;;;;12.43;6.60;;;;;;;;;;10299972;28;20041;-73
2023/12/10 23:20:36;;;;;;;19.88;7.55;;;;;;;;;;10297209;28;20106;-74
2023/12/10 23:25:34;;;;;;;21.15;7.72;;;;;;;;;;10292254;28;20056;-73
2023/12/10 23:30:30;;;;;;;17.42;7.38;;;;;;;;;;10298494;28;20051;-73
2023/12/10 23:35:40;;;;;;;15.82;6.40;;;;;;;;;;10291644;28;20052;-73
2023/12/10 23:40:36;;;;;;;14.55;6.47;;;;;;;;;;10304918;28;20619;-73
2023/12/10 23:45:33;;;;;;;16.10;6.68;;;;;;;;;;10286263;28;20509;-73
2023/12/10 23:50:29;;;;;;;19.33;6.72;;;;;;;;;;10286593;28;20427;-73
2023/12/10 23:55:25;;;;;;;16.20;6.85;;;;;;;;;;10297228;28;20050;-73
